Lannon, Wisconsin
Current Conditions -  °F | °C
As of 8:15 PM on Saturday 22 Nov 2014 (Local Time) from KMWC Reporting Station
Scattered Clouds Scattered Clouds  
Wind Chill: 41°   Ceiling: Unl
Heat Index: 45°   Visibility: 7mi
Dew Point: 41°   Wind: 7mph
Humidity: 87%   Direction: 200°SSW
Pressure: 29.81"   Gusts: NA
Location:  43.15°N, 88.17°W
Report Text: KMWC 230215Z AUTO 20006KT 7SM SCT025 SCT039 07/05 A2981 RMK AO2
Loading
Personal Weather Stations






























Interactive Weather Map New forecast layout! Learn more

10-Day Weather Forecast

Advertisements
Track Severe Weather on mobile